createdAt,value
2018-11-05T00:00:20.954Z,99.99
2018-11-05T00:01:31.087Z,99.99
2018-11-05T00:02:40.663Z,99.99
2018-11-05T00:03:50.508Z,99.99
2018-11-05T00:05:00.410Z,99.99
2018-11-05T00:06:10.542Z,99.99
2018-11-05T00:07:20.396Z,99.99
2018-11-05T00:08:30.530Z,99.99
2018-11-05T00:09:40.391Z,99.99
2018-11-05T00:10:50.237Z,99.99
2018-11-05T00:12:00.405Z,99.99
2018-11-05T00:13:10.529Z,99.99
2018-11-05T00:14:20.384Z,99.99
2018-11-05T00:15:30.508Z,99.99
2018-11-05T00:16:40.643Z,99.99
2018-11-05T00:17:50.788Z,99.99
2018-11-05T00:19:00.646Z,99.99
2018-11-05T00:20:10.518Z,99.99
2018-11-05T00:21:19.835Z,99.99
2018-11-05T00:22:29.689Z,99.99
2018-11-05T00:23:38.988Z,99.99
2018-11-05T00:24:49.116Z,99.99
2018-11-05T00:25:58.691Z,99.99
2018-11-05T00:27:08.273Z,99.99
2018-11-05T00:28:18.122Z,99.99
2018-11-05T00:29:27.975Z,99.99
2018-11-05T00:30:38.111Z,99.99
2018-11-05T00:31:47.964Z,99.99
2018-11-05T00:32:58.086Z,99.99
2018-11-05T00:34:07.938Z,99.99
2018-11-05T00:35:17.515Z,99.99
2018-11-05T00:36:27.654Z,99.99
2018-11-05T00:37:37.822Z,99.99
2018-11-05T00:38:47.960Z,99.99
2018-11-05T00:39:57.540Z,99.99
2018-11-05T00:41:06.844Z,99.99
2018-11-05T00:42:16.965Z,99.99
2018-11-05T00:43:26.821Z,99.99
2018-11-05T00:44:36.667Z,99.99
2018-11-05T00:45:46.620Z,99.99
2018-11-05T00:46:56.848Z,99.99
2018-11-05T00:48:06.435Z,99.99
2018-11-05T00:49:16.298Z,99.99
2018-11-05T00:50:25.880Z,99.99
2018-11-05T00:51:35.741Z,99.99
2018-11-05T00:52:45.604Z,99.99
2018-11-05T00:53:55.450Z,99.99
2018-11-05T00:55:05.032Z,99.99
2018-11-05T00:56:14.329Z,99.99
2018-11-05T00:57:23.695Z,99.99
2018-11-05T00:58:33.879Z,99.99
2018-11-05T00:59:44.001Z,99.99
2018-11-05T01:00:53.857Z,99.99
2018-11-05T01:02:03.992Z,99.99
2018-11-05T01:03:13.853Z,99.99
2018-11-05T01:04:23.747Z,99.99
2018-11-05T01:05:33.872Z,99.99
2018-11-05T01:06:43.732Z,99.99
2018-11-05T01:07:53.584Z,99.99
2018-11-05T01:09:03.216Z,99.99
2018-11-05T01:10:13.340Z,99.99
2018-11-05T01:11:23.467Z,99.99
2018-11-05T01:12:33.325Z,99.99
2018-11-05T01:13:42.955Z,99.99
2018-11-05T01:14:52.810Z,99.99
2018-11-05T01:16:02.386Z,99.99
2018-11-05T01:17:12.511Z,99.99
2018-11-05T01:18:22.631Z,99.99
2018-11-05T01:19:32.209Z,99.99
2018-11-05T01:20:42.063Z,99.99
2018-11-05T01:21:52.193Z,99.99
2018-11-05T01:23:02.043Z,99.99
2018-11-05T01:24:11.620Z,99.99
2018-11-05T01:25:21.472Z,99.99
2018-11-05T01:26:31.340Z,99.99
2018-11-05T01:27:41.470Z,99.99
2018-11-05T01:28:51.604Z,99.99
2018-11-05T01:30:01.743Z,99.99
2018-11-05T01:31:11.601Z,99.99
2018-11-05T01:32:21.729Z,99.99
2018-11-05T01:33:31.851Z,99.99
2018-11-05T01:34:41.705Z,99.99
2018-11-05T01:35:51.838Z,99.99
2018-11-05T01:37:01.769Z,99.99
2018-11-05T01:38:11.967Z,99.99
2018-11-05T01:39:22.101Z,99.99
2018-11-05T01:40:31.676Z,99.99
2018-11-05T01:41:41.526Z,99.99
2018-11-05T01:42:51.651Z,99.99
2018-11-05T01:44:01.501Z,99.99
2018-11-05T01:45:11.082Z,99.99
2018-11-05T01:46:20.936Z,99.99
2018-11-05T01:47:31.112Z,99.99
2018-11-05T01:48:41.244Z,99.99
2018-11-05T01:49:51.371Z,99.99
2018-11-05T01:51:01.221Z,99.99
2018-11-05T01:52:11.070Z,99.99
2018-11-05T01:53:20.641Z,99.99
2018-11-05T01:54:30.494Z,99.99
2018-11-05T01:55:40.618Z,99.99
2018-11-05T01:56:50.748Z,99.99
2018-11-05T01:58:00.603Z,99.99
2018-11-05T01:59:10.456Z,99.99
2018-11-05T02:00:20.583Z,99.99
2018-11-05T02:01:30.433Z,99.99
2018-11-05T02:02:39.785Z,99.99
2018-11-05T02:03:49.908Z,99.99
2018-11-05T02:04:59.483Z,99.99
2018-11-05T02:06:09.333Z,99.99
2018-11-05T02:07:19.466Z,99.99
2018-11-05T02:08:29.314Z,99.99
2018-11-05T02:09:39.166Z,99.99
2018-11-05T02:10:49.014Z,99.99
2018-11-05T02:11:58.592Z,99.99
2018-11-05T02:13:08.549Z,99.99
2018-11-05T02:14:18.200Z,99.99
2018-11-05T02:15:28.054Z,99.99
2018-11-05T02:16:37.905Z,99.99
2018-11-05T02:17:48.030Z,99.99
2018-11-05T02:18:58.206Z,99.99
2018-11-05T02:20:07.506Z,99.99
2018-11-05T02:21:17.642Z,99.99
2018-11-05T02:22:27.214Z,99.99
2018-11-05T02:23:36.790Z,99.99
2018-11-05T02:24:46.644Z,99.99
2018-11-05T02:25:56.786Z,99.99
2018-11-05T02:27:06.767Z,99.99
2018-11-05T02:28:17.178Z,99.99
2018-11-05T02:29:27.299Z,99.99
2018-11-05T02:30:37.157Z,99.99
2018-11-05T02:31:47.012Z,99.99
2018-11-05T02:32:56.883Z,99.99
2018-11-05T02:34:07.014Z,99.99
2018-11-05T02:35:16.593Z,99.99
2018-11-05T02:36:26.179Z,99.99
2018-11-05T02:37:36.037Z,99.99
2018-11-05T02:38:46.165Z,99.99
2018-11-05T02:39:56.300Z,99.99
2018-11-05T02:41:06.148Z,99.99
2018-11-05T02:42:16.275Z,99.99
2018-11-05T02:43:26.130Z,99.99
2018-11-05T02:44:35.982Z,99.99
2018-11-05T02:45:45.561Z,99.99
2018-11-05T02:46:55.444Z,99.99
2018-11-05T02:48:05.572Z,99.99
2018-11-05T02:49:15.420Z,99.99
2018-11-05T02:50:25.270Z,99.99
2018-11-05T02:51:35.415Z,99.99
2018-11-05T02:52:45.551Z,99.99
2018-11-05T02:53:55.690Z,99.99
2018-11-05T02:55:05.849Z,99.99
2018-11-05T02:56:15.713Z,99.99
2018-11-05T02:57:25.841Z,99.99
2018-11-05T02:58:35.962Z,99.99
2018-11-05T02:59:46.106Z,99.99
2018-11-05T03:00:55.960Z,99.99
2018-11-05T03:02:05.813Z,99.99
2018-11-05T03:03:16.084Z,99.99
2018-11-05T03:04:26.542Z,99.99
2018-11-05T03:05:36.681Z,99.99
2018-11-05T03:06:46.535Z,99.99
2018-11-05T03:07:56.382Z,99.99
2018-11-05T03:09:06.519Z,99.99
2018-11-05T03:10:16.399Z,99.99
2018-11-05T03:11:26.584Z,99.99
2018-11-05T03:12:36.714Z,99.99
2018-11-05T03:13:46.845Z,99.99
2018-11-05T03:14:56.971Z,99.99
2018-11-05T03:16:07.138Z,99.99
2018-11-05T03:17:16.992Z,99.99
2018-11-05T03:18:27.125Z,99.99
2018-11-05T03:19:36.982Z,99.99
2018-11-05T03:20:46.838Z,99.99
2018-11-05T03:21:56.969Z,99.99
2018-11-05T03:23:06.828Z,99.99
2018-11-05T03:24:16.689Z,99.99
2018-11-05T03:25:26.544Z,99.99
2018-11-05T03:26:36.397Z,99.99
2018-11-05T03:27:46.259Z,99.99
2018-11-05T03:28:56.401Z,99.99
2018-11-05T03:30:06.269Z,99.99
2018-11-05T03:31:16.154Z,99.99
2018-11-05T03:32:25.740Z,99.99
2018-11-05T03:33:35.319Z,99.99
2018-11-05T03:34:45.448Z,99.99
2018-11-05T03:35:55.427Z,99.99
2018-11-05T03:37:06.221Z,99.99
2018-11-05T03:38:16.365Z,99.99
2018-11-05T03:39:25.948Z,99.99
2018-11-05T03:40:36.086Z,99.99
2018-11-05T03:41:45.667Z,99.99
2018-11-05T03:42:55.808Z,99.99
2018-11-05T03:44:05.937Z,99.99
2018-11-05T03:45:15.829Z,99.99
2018-11-05T03:46:25.975Z,99.99
2018-11-05T03:47:36.107Z,99.99
2018-11-05T03:48:45.694Z,99.99
2018-11-05T03:49:55.828Z,99.99
2018-11-05T03:51:05.963Z,99.99
2018-11-05T03:52:16.100Z,99.99
2018-11-05T03:53:26.230Z,99.99
2018-11-05T03:54:36.360Z,99.99
2018-11-05T03:55:46.904Z,99.99
2018-11-05T03:56:57.191Z,99.99
2018-11-05T03:58:06.829Z,99.99
2018-11-05T03:59:16.410Z,99.99
2018-11-05T04:00:26.003Z,99.99
2018-11-05T04:01:36.136Z,99.99
2018-11-05T04:02:45.438Z,99.99
2018-11-05T04:03:55.304Z,99.99
2018-11-05T04:05:04.900Z,99.99
2018-11-05T04:06:14.891Z,99.99
2018-11-05T04:07:24.767Z,99.99
2018-11-05T04:08:34.612Z,99.99
2018-11-05T04:09:44.466Z,99.99
2018-11-05T04:10:54.612Z,99.99
2018-11-05T04:12:04.471Z,99.99
2018-11-05T04:13:14.061Z,99.99
2018-11-05T04:14:23.640Z,99.99
2018-11-05T04:15:34.118Z,99.99
2018-11-05T04:16:45.063Z,99.99
2018-11-05T04:17:55.208Z,99.99
2018-11-05T04:19:05.347Z,99.99
2018-11-05T04:20:14.931Z,99.99
2018-11-05T04:21:24.784Z,99.99
2018-11-05T04:22:34.369Z,99.99
2018-11-05T04:23:44.497Z,99.99
2018-11-05T04:24:53.798Z,99.99
2018-11-05T04:26:03.653Z,99.99
2018-11-05T04:27:13.785Z,99.99
2018-11-05T04:28:23.637Z,99.99
2018-11-05T04:29:33.843Z,99.99
2018-11-05T04:30:43.701Z,99.99
2018-11-05T04:31:53.833Z,99.99
2018-11-05T04:33:03.983Z,99.99
2018-11-05T04:34:14.194Z,99.99
2018-11-05T04:35:24.337Z,99.99
2018-11-05T04:36:34.189Z,99.99
2018-11-05T04:37:44.328Z,99.99
2018-11-05T04:38:54.455Z,99.99
2018-11-05T04:40:04.032Z,99.99
2018-11-05T04:41:13.890Z,99.99
2018-11-05T04:42:24.024Z,99.99
2018-11-05T04:43:34.197Z,99.99
2018-11-05T04:44:44.319Z,99.99
2018-11-05T04:45:54.452Z,99.99
2018-11-05T04:47:04.307Z,99.99
2018-11-05T04:48:14.436Z,99.99
2018-11-05T04:49:24.026Z,99.99
2018-11-05T04:50:33.895Z,99.99
2018-11-05T04:51:44.020Z,99.99
2018-11-05T04:52:54.146Z,99.99
2018-11-05T04:54:04.289Z,99.99
2018-11-05T04:55:14.431Z,99.99
2018-11-05T04:56:24.558Z,99.99
2018-11-05T04:57:34.691Z,99.99
2018-11-05T04:58:44.822Z,99.99
2018-11-05T04:59:54.400Z,99.99
2018-11-05T05:01:03.983Z,99.99
2018-11-05T05:02:13.841Z,99.99
2018-11-05T05:03:22.962Z,99.99
2018-11-05T05:04:33.524Z,99.99
2018-11-05T05:05:43.651Z,99.99
2018-11-05T05:06:53.518Z,99.99
2018-11-05T05:08:03.097Z,99.99
2018-11-05T05:09:12.951Z,99.99
2018-11-05T05:10:23.083Z,99.99
2018-11-05T05:11:33.214Z,99.99
2018-11-05T05:12:43.341Z,99.99
2018-11-05T05:13:53.194Z,99.99
2018-11-05T05:15:03.045Z,99.99
2018-11-05T05:16:13.329Z,99.99
2018-11-05T05:17:23.886Z,99.99
2018-11-05T05:18:34.014Z,99.99
2018-11-05T05:19:43.866Z,99.99
2018-11-05T05:20:53.719Z,99.99
2018-11-05T05:22:03.298Z,99.99
2018-11-05T05:23:13.582Z,99.99
2018-11-05T05:24:23.715Z,99.99
2018-11-05T05:25:33.846Z,99.99
2018-11-05T05:26:43.427Z,99.99
2018-11-05T05:27:53.567Z,99.99
2018-11-05T05:29:03.145Z,99.99
2018-11-05T05:30:12.996Z,99.99
2018-11-05T05:31:23.139Z,99.99
2018-11-05T05:32:33.266Z,99.99
2018-11-05T05:33:43.613Z,99.99
2018-11-05T05:34:52.999Z,99.99
2018-11-05T05:36:03.139Z,99.99
2018-11-05T05:37:12.987Z,99.99
2018-11-05T05:38:22.841Z,99.99
2018-11-05T05:39:32.983Z,99.99
2018-11-05T05:40:42.920Z,99.99
2018-11-05T05:41:53.009Z,99.99
2018-11-05T05:43:03.140Z,99.99
2018-11-05T05:44:12.993Z,99.99
2018-11-05T05:45:22.844Z,99.99
2018-11-05T05:46:32.697Z,99.99
2018-11-05T05:47:42.840Z,99.99
2018-11-05T05:48:52.967Z,99.99
2018-11-05T05:50:02.560Z,99.99
2018-11-05T05:51:13.106Z,99.99
2018-11-05T05:52:23.232Z,99.99
2018-11-05T05:53:33.084Z,99.99
2018-11-05T05:54:43.224Z,99.99
2018-11-05T05:55:53.067Z,99.99
2018-11-05T05:57:02.917Z,99.99
2018-11-05T05:58:13.039Z,99.99
2018-11-05T05:59:22.907Z,99.99
2018-11-05T06:00:32.760Z,99.99
2018-11-05T06:01:42.902Z,99.99
2018-11-05T06:02:52.757Z,99.99
2018-11-05T06:04:02.894Z,99.99
2018-11-05T06:05:12.755Z,99.99
2018-11-05T06:06:23.053Z,99.99
2018-11-05T06:07:33.517Z,99.99
2018-11-05T06:08:43.641Z,99.99
2018-11-05T06:09:53.222Z,99.99
2018-11-05T06:11:02.523Z,99.99
2018-11-05T06:12:12.373Z,99.99
2018-11-05T06:13:22.494Z,99.99
2018-11-05T06:14:32.344Z,99.99
2018-11-05T06:15:41.709Z,99.99
2018-11-05T06:16:52.115Z,99.99
2018-11-05T06:18:02.237Z,99.99
2018-11-05T06:19:11.808Z,99.99
2018-11-05T06:20:21.933Z,99.99
2018-11-05T06:21:31.785Z,99.99
2018-11-05T06:22:41.473Z,99.99
2018-11-05T06:23:51.606Z,99.99
2018-11-05T06:25:01.489Z,99.99
2018-11-05T06:26:11.354Z,99.99
2018-11-05T06:27:20.939Z,99.99
2018-11-05T06:28:30.545Z,99.99
2018-11-05T06:29:40.375Z,99.99
2018-11-05T06:30:50.510Z,99.99
2018-11-05T06:32:00.647Z,99.99
2018-11-05T06:33:10.784Z,99.99
2018-11-05T06:34:20.499Z,99.99
2018-11-05T06:35:30.401Z,99.99
2018-11-05T06:36:40.631Z,99.99
2018-11-05T06:37:50.483Z,99.99
2018-11-05T06:39:00.065Z,99.99
2018-11-05T06:40:09.636Z,99.99
2018-11-05T06:41:40.352Z,99.99
2018-11-05T06:42:51.253Z,99.99
2018-11-05T06:44:01.749Z,99.99
2018-11-05T06:45:12.023Z,99.99
2018-11-05T06:46:22.050Z,99.99
2018-11-05T06:47:32.188Z,99.99
2018-11-05T06:48:41.777Z,99.99
2018-11-05T06:49:51.734Z,99.99
2018-11-05T06:51:01.302Z,99.99
2018-11-05T06:52:11.426Z,99.99
2018-11-05T06:53:21.269Z,99.99
2018-11-05T06:54:31.126Z,99.99
2018-11-05T06:55:41.246Z,99.99
2018-11-05T06:56:50.818Z,99.99
2018-11-05T06:58:00.669Z,99.99
2018-11-05T06:59:10.802Z,99.99
2018-11-05T07:00:20.659Z,99.99
2018-11-05T07:01:30.791Z,99.99
2018-11-05T07:02:40.951Z,99.99
2018-11-05T07:03:50.597Z,99.99
2018-11-05T07:05:00.723Z,99.99
2018-11-05T07:06:10.579Z,99.99
2018-11-05T07:07:20.432Z,99.99
2018-11-05T07:08:30.294Z,99.99
2018-11-05T07:09:40.459Z,99.99
2018-11-05T07:10:50.856Z,99.99
2018-11-05T07:12:00.992Z,99.99
2018-11-05T07:13:11.127Z,99.99
2018-11-05T07:14:21.332Z,99.99
2018-11-05T07:15:31.473Z,99.99
2018-11-05T07:16:41.604Z,99.99
2018-11-05T07:17:51.472Z,99.99
2018-11-05T07:19:01.997Z,99.99
2018-11-05T07:20:14.049Z,99.99
2018-11-05T07:21:23.923Z,99.99
2018-11-05T07:22:33.770Z,99.99
2018-11-05T07:23:43.892Z,99.99
2018-11-05T07:24:53.742Z,99.99
2018-11-05T07:26:03.586Z,99.99
2018-11-05T07:27:13.728Z,99.99
2018-11-05T07:28:23.584Z,99.99
2018-11-05T07:29:33.713Z,99.99
2018-11-05T07:30:43.291Z,99.99
2018-11-05T07:31:53.413Z,99.99
2018-11-05T07:33:03.039Z,99.99
2018-11-05T07:34:12.915Z,99.99
2018-11-05T07:35:23.189Z,99.99
2018-11-05T07:36:33.309Z,99.99
2018-11-05T07:37:42.899Z,99.99
2018-11-05T07:38:53.074Z,99.99
2018-11-05T07:40:02.923Z,99.99
2018-11-05T07:41:13.048Z,99.99
2018-11-05T07:42:22.909Z,99.99
2018-11-05T07:43:33.036Z,99.99
2018-11-05T07:44:42.889Z,99.99
2018-11-05T07:45:52.740Z,99.99
2018-11-05T07:47:02.595Z,99.99
2018-11-05T07:48:12.445Z,99.99
2018-11-05T07:49:22.576Z,99.99
2018-11-05T07:50:32.232Z,99.99
2018-11-05T07:51:42.360Z,99.99
2018-11-05T07:52:52.489Z,99.99
2018-11-05T07:54:02.610Z,99.99
2018-11-05T07:55:12.512Z,99.99
2018-11-05T07:56:22.982Z,99.99
2018-11-05T07:57:33.170Z,99.99
2018-11-05T07:58:42.744Z,99.99
2018-11-05T07:59:52.590Z,99.99
2018-11-05T08:01:02.740Z,99.99
2018-11-05T08:02:12.384Z,99.99
2018-11-05T08:03:22.235Z,99.99
2018-11-05T08:04:31.534Z,99.99
2018-11-05T08:05:40.831Z,99.99
2018-11-05T08:06:50.681Z,99.99
2018-11-05T08:08:00.858Z,99.99
2018-11-05T08:09:10.522Z,99.99
2018-11-05T08:10:19.821Z,99.99
2018-11-05T08:11:29.945Z,99.99
2018-11-05T08:12:40.074Z,99.99
2018-11-05T08:13:49.424Z,99.99
2018-11-05T08:14:59.561Z,99.99
2018-11-05T08:16:09.138Z,99.99
2018-11-05T08:17:19.289Z,99.99
2018-11-05T08:18:29.140Z,99.99
2018-11-05T08:19:38.496Z,99.99
2018-11-05T08:20:48.627Z,99.99
2018-11-05T08:21:58.752Z,99.99
2018-11-05T08:23:08.343Z,99.99
2018-11-05T08:24:18.464Z,99.99
2018-11-05T08:25:28.644Z,99.99
2018-11-05T08:26:38.517Z,99.99
2018-11-05T08:27:48.372Z,99.99
2018-11-05T08:28:58.500Z,99.99
2018-11-05T08:30:08.626Z,99.99
2018-11-05T08:31:18.542Z,99.99
2018-11-05T08:32:28.388Z,99.99
2018-11-05T08:33:38.236Z,99.99
2018-11-05T08:34:48.090Z,99.99
2018-11-05T08:35:57.712Z,99.99
2018-11-05T08:37:07.355Z,99.99
2018-11-05T08:38:17.496Z,99.99
2018-11-05T08:39:27.088Z,99.99
2018-11-05T08:40:37.242Z,99.99
2018-11-05T08:41:47.400Z,99.99
2018-11-05T08:42:57.579Z,99.99
2018-11-05T08:44:07.711Z,99.99
2018-11-05T08:45:17.293Z,99.99
2018-11-05T08:46:27.479Z,99.99
2018-11-05T08:47:37.658Z,99.99
2018-11-05T08:48:47.829Z,99.99
2018-11-05T08:49:57.732Z,99.99
2018-11-05T08:51:07.611Z,99.99
2018-11-05T08:52:19.274Z,99.99
2018-11-05T08:53:29.127Z,99.99
2018-11-05T08:54:38.750Z,99.99
2018-11-05T08:55:48.621Z,99.99
2018-11-05T08:56:58.743Z,99.99
2018-11-05T08:58:08.869Z,99.99
2018-11-05T08:59:18.721Z,99.99
2018-11-05T09:00:28.570Z,99.99
2018-11-05T09:01:38.421Z,99.99
2018-11-05T09:02:47.999Z,99.99
2018-11-05T09:03:57.891Z,99.99
2018-11-05T09:05:07.886Z,99.99
2018-11-05T09:06:18.470Z,99.99
2018-11-05T09:07:28.647Z,99.99
2018-11-05T09:08:38.502Z,99.99
2018-11-05T09:09:48.576Z,99.99
2018-11-05T09:11:00.286Z,99.99
2018-11-05T09:12:13.469Z,99.99
2018-11-05T09:13:23.581Z,99.99
2018-11-05T09:14:33.710Z,99.99
2018-11-05T09:15:43.568Z,99.99
2018-11-05T09:16:53.419Z,99.99
2018-11-05T09:18:03.570Z,99.99
2018-11-05T09:19:13.184Z,99.99
2018-11-05T09:20:23.419Z,99.99
2018-11-05T09:21:33.271Z,99.99
2018-11-05T09:22:43.395Z,99.99
2018-11-05T09:23:53.302Z,99.99
2018-11-05T09:25:03.150Z,99.99
2018-11-05T09:26:13.293Z,99.99
2018-11-05T09:27:22.873Z,99.99
2018-11-05T09:28:32.726Z,99.99
2018-11-05T09:29:42.625Z,99.99
2018-11-05T09:30:52.200Z,99.99
2018-11-05T09:32:02.330Z,99.99
2018-11-05T09:33:12.466Z,99.99
2018-11-05T09:34:22.597Z,99.99
2018-11-05T09:35:31.946Z,99.99
2018-11-05T09:36:41.793Z,99.99
2018-11-05T09:37:51.649Z,99.99
2018-11-05T09:39:01.223Z,99.99
2018-11-05T09:40:11.350Z,99.99
2018-11-05T09:41:21.527Z,99.99
2018-11-05T09:42:31.443Z,99.99
2018-11-05T09:43:41.703Z,99.99
2018-11-05T09:44:51.826Z,99.99
2018-11-05T09:46:01.676Z,99.99
2018-11-05T09:47:11.526Z,99.99
2018-11-05T09:48:21.100Z,99.99
2018-11-05T09:49:31.275Z,99.99
2018-11-05T09:50:41.577Z,99.99
2018-11-05T09:51:52.442Z,99.99
2018-11-05T09:53:02.346Z,99.99
2018-11-05T09:54:12.198Z,99.99
2018-11-05T09:55:22.054Z,99.99
2018-11-05T09:56:32.333Z,99.99
2018-11-05T09:57:42.466Z,99.99
2018-11-05T09:58:52.719Z,99.99
2018-11-05T10:00:02.291Z,99.99
2018-11-05T10:01:12.422Z,99.99
2018-11-05T10:02:22.274Z,99.99
2018-11-05T10:03:32.015Z,99.99
2018-11-05T10:04:44.125Z,99.99
2018-11-05T10:05:56.241Z,99.99
2018-11-05T10:07:06.098Z,99.99
2018-11-05T10:08:16.005Z,99.99
2018-11-05T10:09:25.906Z,99.99
2018-11-05T10:10:35.929Z,99.99
2018-11-05T10:11:46.055Z,99.99
2018-11-05T10:12:55.905Z,99.99
2018-11-05T10:14:06.044Z,99.99
2018-11-05T10:15:15.903Z,99.99
2018-11-05T10:16:26.189Z,99.99
2018-11-05T10:17:36.195Z,99.99
2018-11-05T10:18:46.047Z,99.99
2018-11-05T10:19:56.178Z,99.99
2018-11-05T10:21:05.759Z,99.99
2018-11-05T10:22:15.399Z,99.99
2018-11-05T10:23:25.253Z,99.99
2018-11-05T10:24:35.142Z,99.99
2018-11-05T10:25:45.516Z,99.99
2018-11-05T10:26:55.377Z,99.99
2018-11-05T10:28:05.516Z,99.99
2018-11-05T10:29:15.652Z,99.99
2018-11-05T10:30:25.800Z,99.99
2018-11-05T10:31:35.933Z,99.99
2018-11-05T10:32:45.239Z,99.99
2018-11-05T10:33:55.647Z,99.99
2018-11-05T10:35:05.223Z,99.99
2018-11-05T10:36:15.084Z,99.99
2018-11-05T10:37:24.663Z,99.99
2018-11-05T10:38:34.985Z,99.99
2018-11-05T10:39:44.681Z,99.99
2018-11-05T10:40:54.860Z,99.99
2018-11-05T10:42:04.991Z,99.99
2018-11-05T10:43:15.120Z,99.45
2018-11-05T10:44:24.988Z,99.74
2018-11-05T10:45:34.900Z,99.74
2018-11-05T10:46:45.026Z,99.64
2018-11-05T10:47:54.883Z,99.79
2018-11-05T10:49:04.471Z,99.69
2018-11-05T10:50:14.724Z,99.6
2018-11-05T10:51:25.517Z,99.74
2018-11-05T10:52:35.741Z,99.5
2018-11-05T10:53:45.595Z,99.31
2018-11-05T10:54:55.720Z,99.69
2018-11-05T10:56:05.573Z,99.99
2018-11-05T10:57:15.474Z,99.41
2018-11-05T10:58:25.533Z,99.5
2018-11-05T10:59:35.662Z,99.41
2018-11-05T11:00:45.523Z,99.69
2018-11-05T11:01:55.377Z,99.41
2018-11-05T11:03:04.729Z,99.69
2018-11-05T11:04:14.596Z,99.22
2018-11-05T11:05:24.906Z,98.93
2018-11-05T11:06:34.775Z,99.02
2018-11-05T11:07:44.626Z,99.69
2018-11-05T11:08:54.801Z,99.31
2018-11-05T11:10:04.936Z,98.93
2018-11-05T11:11:14.793Z,98.55
2018-11-05T11:12:24.919Z,98.74
2018-11-05T11:13:35.075Z,98.65
2018-11-05T11:14:44.988Z,98.36
2018-11-05T11:15:55.129Z,98.55
2018-11-05T11:17:04.709Z,98.83
2018-11-05T11:18:14.563Z,98.55
2018-11-05T11:19:24.422Z,98.74
2018-11-05T11:20:34.327Z,98.65
2018-11-05T11:21:44.455Z,98.83
2018-11-05T11:22:54.648Z,98.65
2018-11-05T11:24:04.509Z,98.69
2018-11-05T11:25:14.634Z,98.36
2018-11-05T11:26:24.538Z,98.17
2018-11-05T11:27:33.890Z,98.27
2018-11-05T11:28:44.240Z,98.03
2018-11-05T11:29:54.497Z,97.93
2018-11-05T11:31:04.341Z,97.27
2018-11-05T11:32:14.249Z,97.46
2018-11-05T11:33:24.100Z,97.46
2018-11-05T11:34:33.962Z,96.98
2018-11-05T11:35:43.544Z,96.6
2018-11-05T11:36:53.799Z,96.22
2018-11-05T11:38:03.874Z,96.12
2018-11-05T11:39:13.742Z,95.56
2018-11-05T11:40:23.596Z,96.22
2018-11-05T11:41:33.726Z,96.6
2018-11-05T11:42:43.031Z,96.22
2018-11-05T11:43:53.212Z,96.03
2018-11-05T11:45:03.843Z,95.94
2018-11-05T11:46:13.248Z,96.03
2018-11-05T11:47:23.105Z,96.12
2018-11-05T11:48:32.679Z,96.03
2018-11-05T11:49:42.865Z,95.84
2018-11-05T11:50:53.006Z,95.65
2018-11-05T11:52:02.854Z,95.75
2018-11-05T11:53:13.213Z,95.84
2018-11-05T11:54:24.073Z,96.22
2018-11-05T11:55:34.275Z,96.22
2018-11-05T11:56:44.494Z,96.22
2018-11-05T11:57:54.076Z,95.89
2018-11-05T11:59:03.948Z,95.94
2018-11-05T12:00:13.915Z,96.26
2018-11-05T12:01:23.836Z,95.94
2018-11-05T12:02:34.060Z,95.98
2018-11-05T12:03:44.218Z,95.98
2018-11-05T12:04:54.281Z,96.31
2018-11-05T12:06:04.152Z,96.17
2018-11-05T12:07:13.779Z,96.26
2018-11-05T12:08:23.651Z,96.17
2018-11-05T12:09:33.779Z,96.17
2018-11-05T12:10:43.635Z,96.46
2018-11-05T12:11:53.503Z,96.94
2018-11-05T12:13:03.683Z,97.6
2018-11-05T12:14:13.004Z,97.79
2018-11-05T12:15:23.518Z,98.08
2018-11-05T12:16:33.658Z,98.97
2018-11-05T12:17:43.797Z,99.99
2018-11-05T12:18:53.965Z,99.99
2018-11-05T12:20:03.832Z,99.99
2018-11-05T12:21:13.415Z,99.99
2018-11-05T12:22:22.990Z,99.99
2018-11-05T12:23:33.121Z,99.99
2018-11-05T12:24:43.053Z,99.99
2018-11-05T12:25:52.728Z,99.99
2018-11-05T12:27:02.592Z,99.99
2018-11-05T12:28:12.171Z,99.99
2018-11-05T12:29:22.310Z,99.99
2018-11-05T12:30:32.217Z,99.99
2018-11-05T12:31:42.075Z,99.99
2018-11-05T12:32:52.204Z,99.99
2018-11-05T12:34:02.060Z,99.99
2018-11-05T12:35:11.913Z,99.99
2018-11-05T12:36:22.102Z,99.99
2018-11-05T12:37:32.230Z,99.99
2018-11-05T12:38:41.613Z,99.99
2018-11-05T12:39:52.043Z,99.99
2018-11-05T12:41:01.907Z,99.99
2018-11-05T12:42:11.541Z,99.99
2018-11-05T12:43:21.688Z,99.99
2018-11-05T12:44:31.935Z,99.99
2018-11-05T12:45:42.694Z,99.99
2018-11-05T12:46:52.546Z,99.99
2018-11-05T12:48:02.508Z,99.99
2018-11-05T12:49:12.089Z,99.99
2018-11-05T12:50:22.226Z,99.99
2018-11-05T12:51:31.848Z,99.99
2018-11-05T12:52:41.980Z,99.99
2018-11-05T12:53:52.155Z,99.99
2018-11-05T12:55:02.287Z,99.99
2018-11-05T12:56:12.429Z,99.99
2018-11-05T12:57:22.558Z,99.99
2018-11-05T12:58:32.689Z,99.99
2018-11-05T12:59:42.602Z,99.99
2018-11-05T13:00:52.226Z,99.99
2018-11-05T13:02:02.218Z,99.99
2018-11-05T13:03:12.075Z,99.99
2018-11-05T13:04:21.978Z,99.99
2018-11-05T13:05:31.882Z,99.99
2018-11-05T13:06:41.500Z,99.99
2018-11-05T13:07:51.751Z,99.99
2018-11-05T13:09:01.884Z,99.99
2018-11-05T13:10:11.731Z,99.99
2018-11-05T13:11:21.361Z,99.99
2018-11-05T13:12:31.210Z,99.99
2018-11-05T13:13:41.058Z,99.99
2018-11-05T13:14:50.906Z,99.99
2018-11-05T13:15:59.945Z,99.99
2018-11-05T13:17:09.858Z,99.99
2018-11-05T13:18:19.980Z,99.99
2018-11-05T13:19:29.828Z,99.99
2018-11-05T13:20:39.965Z,99.99
2018-11-05T13:21:49.540Z,99.99
2018-11-05T13:22:58.897Z,99.99
2018-11-05T13:24:09.077Z,99.99
2018-11-05T13:25:18.856Z,99.99
2018-11-05T13:26:29.003Z,99.99
2018-11-05T13:27:39.125Z,99.99
2018-11-05T13:28:49.578Z,99.99
2018-11-05T13:29:59.702Z,99.99
2018-11-05T13:31:09.852Z,99.99
2018-11-05T13:32:19.987Z,99.99
2018-11-05T13:33:30.133Z,99.99
2018-11-05T13:34:40.038Z,99.99
2018-11-05T13:35:50.163Z,99.99
2018-11-05T13:37:00.491Z,99.99
2018-11-05T13:38:12.359Z,99.99
2018-11-05T13:39:24.187Z,99.99
2018-11-05T13:40:33.816Z,99.99
2018-11-05T13:41:43.390Z,99.99
2018-11-05T13:42:53.244Z,99.99
2018-11-05T13:44:03.105Z,99.99
2018-11-05T13:45:13.406Z,99.99
2018-11-05T13:46:25.421Z,99.99
2018-11-05T13:47:38.903Z,99.99
2018-11-05T13:48:54.906Z,99.99
2018-11-05T13:50:08.072Z,99.99
2018-11-05T13:51:19.691Z,99.99
2018-11-05T13:52:30.271Z,99.99
2018-11-05T13:53:40.157Z,99.99
2018-11-05T13:54:50.410Z,99.99
2018-11-05T13:56:02.517Z,99.99
2018-11-05T13:57:12.744Z,99.99
2018-11-05T13:58:22.754Z,99.99
2018-11-05T13:59:32.802Z,99.99
2018-11-05T14:00:42.664Z,99.99
2018-11-05T14:01:52.521Z,99.99
2018-11-05T14:03:02.432Z,99.99
2018-11-05T14:04:12.567Z,99.99
2018-11-05T14:05:22.692Z,99.99
2018-11-05T14:06:32.930Z,99.99
2018-11-05T14:07:43.068Z,99.99
2018-11-05T14:08:52.975Z,99.99
2018-11-05T14:10:02.832Z,99.99
2018-11-05T14:11:12.688Z,99.99
2018-11-05T14:12:22.815Z,99.99
2018-11-05T14:13:32.992Z,99.99
2018-11-05T14:14:42.948Z,99.99
2018-11-05T14:15:53.067Z,99.99
2018-11-05T14:17:02.370Z,99.99
2018-11-05T14:18:12.306Z,99.99
2018-11-05T14:19:22.452Z,99.99
2018-11-05T14:20:32.353Z,99.99
2018-11-05T14:21:42.213Z,99.99
2018-11-05T14:22:52.060Z,99.99
2018-11-05T14:24:02.193Z,99.99
2018-11-05T14:25:12.331Z,99.99
2018-11-05T14:26:22.073Z,99.99
2018-11-05T14:27:32.548Z,99.99
2018-11-05T14:28:44.333Z,99.99
2018-11-05T14:29:57.498Z,99.99
2018-11-05T14:31:09.500Z,99.99
2018-11-05T14:32:20.021Z,99.99
2018-11-05T14:33:30.202Z,99.99
2018-11-05T14:34:40.063Z,99.99
2018-11-05T14:35:50.261Z,99.99
2018-11-05T14:37:01.058Z,99.99
2018-11-05T14:38:11.241Z,99.99
2018-11-05T14:39:21.208Z,99.99
2018-11-05T14:40:31.063Z,99.99
2018-11-05T14:41:40.967Z,99.99
2018-11-05T14:42:51.242Z,99.99
2018-11-05T14:44:01.452Z,99.99
2018-11-05T14:45:11.087Z,99.99
2018-11-05T14:46:21.232Z,99.99
2018-11-05T14:47:30.816Z,99.99
2018-11-05T14:48:41.139Z,99.99
2018-11-05T14:49:51.705Z,99.99
2018-11-05T14:51:01.992Z,99.99
2018-11-05T14:52:12.161Z,99.99
2018-11-05T14:53:22.294Z,99.99
2018-11-05T14:54:32.416Z,99.99
2018-11-05T14:55:42.044Z,99.99
2018-11-05T14:56:51.633Z,99.99
2018-11-05T14:58:01.765Z,99.99
2018-11-05T14:59:10.801Z,99.99
2018-11-05T15:00:20.395Z,99.99
2018-11-05T15:01:30.352Z,99.99